Time;durP1;ratioP1;P1;durP2;ratioP2;P2;SDS_P1;SDS_P2;PMS_P1;PMS_P2;Temp;Humidity;BMP_temperature;BMP_pressure;BME280_temperature;BME280_humidity;BME280_pressure;Samples;Min_cycle;Max_cycle;Signal;HPM_P1;HPM_P2
2022/07/18 00:01:40;;;;;;;;;;;18.60;99.90;;;;;;5053762;28;19924;-73
2022/07/18 00:04:05;;;;;;;;;;;18.60;99.90;;;;;;5058594;28;20283;-73
2022/07/18 00:06:31;;;;;;;;;;;18.50;99.90;;;;;;5050162;28;20287;-73
2022/07/18 00:08:56;;;;;;;;;;;18.50;99.90;;;;;;5050303;28;20405;-73
2022/07/18 00:11:22;;;;;;;;;;;18.50;99.90;;;;;;5049432;28;20285;-73
2022/07/18 00:13:47;;;;;;;;;;;18.50;99.90;;;;;;5049391;28;19924;-73
2022/07/18 00:16:13;;;;;;;;;;;18.50;99.90;;;;;;5049905;28;19921;-73
2022/07/18 00:18:39;;;;;;;;;;;18.40;99.90;;;;;;5049122;28;19920;-73
2022/07/18 00:21:04;;;;;;;;;;;18.40;99.90;;;;;;5048473;28;20599;-73
2022/07/18 00:23:30;;;;;;;;;;;18.40;99.90;;;;;;5050021;28;20000;-73
2022/07/18 00:25:55;;;;;;;;;;;18.40;99.90;;;;;;5049356;28;19920;-73
2022/07/18 00:28:21;;;;;;;;;;;18.30;99.90;;;;;;5048483;28;19920;-73
2022/07/18 00:30:47;;;;;;;;;;;18.30;99.90;;;;;;5049582;28;19972;-73
2022/07/18 00:33:12;;;;;;;;;;;18.20;99.90;;;;;;5048565;28;19928;-73
2022/07/18 00:35:38;;;;;;;;;;;18.20;99.90;;;;;;5048958;28;20004;-73
2022/07/18 00:38:03;;;;;;;;;;;18.20;99.90;;;;;;5050377;28;19924;-73
2022/07/18 00:40:30;;;;;;;;;;;18.10;99.90;;;;;;5050481;28;19924;-73
2022/07/18 00:42:55;;;;;;;;;;;18.10;99.90;;;;;;5049043;28;19943;-73
2022/07/18 00:45:21;;;;;;;;;;;18.00;99.90;;;;;;5049745;28;20353;-73
2022/07/18 00:47:46;;;;;;;;;;;18.10;99.90;;;;;;5049579;28;19920;-73
2022/07/18 00:50:12;;;;;;;;;;;18.00;99.90;;;;;;5049474;28;19924;-73
2022/07/18 00:52:38;;;;;;;;;;;18.00;99.90;;;;;;5049763;28;19921;-73
2022/07/18 00:55:07;;;;;;;;;;;17.90;99.90;;;;;;5049148;28;20386;-73
2022/07/18 00:57:32;;;;;;;;;;;17.90;99.90;;;;;;5059379;28;19920;-73
2022/07/18 01:02:42;;;;;;;;;;;17.80;99.90;;;;;;5056393;28;19925;-73
2022/07/18 01:05:08;;;;;;;;;;;17.80;99.90;;;;;;5061935;28;19927;-73
2022/07/18 01:07:35;;;;;;;;;;;17.80;99.90;;;;;;5062594;28;19950;-73
2022/07/18 01:10:00;;;;;;;;;;;17.70;99.90;;;;;;5068686;28;19964;-73
2022/07/18 01:12:26;;;;;;;;;;;17.70;99.90;;;;;;5069373;28;19974;-73
2022/07/18 01:14:52;;;;;;;;;;;17.70;99.90;;;;;;5061971;28;19921;-73
2022/07/18 01:17:18;;;;;;;;;;;17.70;99.90;;;;;;5061905;28;19966;-73
2022/07/18 01:19:44;;;;;;;;;;;17.70;99.90;;;;;;5036044;28;19974;-73
2022/07/18 01:22:10;;;;;;;;;;;17.60;99.90;;;;;;5062435;28;20011;-73
2022/07/18 01:24:37;;;;;;;;;;;17.60;99.90;;;;;;5048717;28;20402;-73
2022/07/18 01:27:02;;;;;;;;;;;17.60;99.90;;;;;;5048893;28;19955;-72
2022/07/18 01:29:28;;;;;;;;;;;17.50;99.90;;;;;;5049041;28;19921;-73
2022/07/18 01:31:53;;;;;;;;;;;17.50;99.90;;;;;;5048933;28;19921;-73
2022/07/18 01:34:22;;;;;;;;;;;17.50;99.90;;;;;;5049191;28;20502;-74
2022/07/18 01:36:48;;;;;;;;;;;17.50;99.90;;;;;;5048107;28;19920;-73
2022/07/18 01:39:13;;;;;;;;;;;17.50;99.90;;;;;;5049261;28;19921;-73
2022/07/18 01:41:40;;;;;;;;;;;17.40;99.90;;;;;;5049890;28;19920;-73
2022/07/18 01:44:06;;;;;;;;;;;17.30;99.90;;;;;;5053007;28;19974;-73
2022/07/18 01:46:32;;;;;;;;;;;17.30;99.90;;;;;;5051804;28;19920;-73
2022/07/18 01:48:57;;;;;;;;;;;17.30;99.90;;;;;;5052596;28;20449;-73
2022/07/18 01:51:22;;;;;;;;;;;17.30;99.90;;;;;;5051364;28;19921;-73
2022/07/18 01:53:57;;;;;;;;;;;17.30;99.90;;;;;;5052270;28;19921;-73
2022/07/18 01:56:23;;;;;;;;;;;17.20;99.90;;;;;;5052524;28;19990;-73
2022/07/18 01:58:49;;;;;;;;;;;17.20;99.90;;;;;;5049683;28;20509;-73
2022/07/18 02:01:14;;;;;;;;;;;17.20;99.90;;;;;;5052372;28;19920;-73
2022/07/18 02:03:40;;;;;;;;;;;17.20;99.90;;;;;;5051716;28;19920;-73
2022/07/18 02:06:05;;;;;;;;;;;17.20;99.90;;;;;;5051178;28;20011;-73
2022/07/18 02:08:31;;;;;;;;;;;17.20;99.90;;;;;;5050941;28;20018;-74
2022/07/18 02:10:57;;;;;;;;;;;17.10;99.90;;;;;;5052176;28;19987;-74
2022/07/18 02:13:22;;;;;;;;;;;17.20;99.90;;;;;;5051605;28;20357;-73
2022/07/18 02:15:48;;;;;;;;;;;17.20;99.90;;;;;;5051585;28;19925;-73
2022/07/18 02:18:13;;;;;;;;;;;17.10;99.90;;;;;;5050263;28;19921;-73
2022/07/18 02:20:39;;;;;;;;;;;17.10;99.90;;;;;;5051822;28;20039;-73
2022/07/18 02:23:04;;;;;;;;;;;17.10;99.90;;;;;;5052000;28;19967;-73
2022/07/18 02:25:30;;;;;;;;;;;17.00;99.90;;;;;;5051823;28;19931;-73
2022/07/18 02:27:55;;;;;;;;;;;17.00;99.90;;;;;;5051462;28;19920;-73
2022/07/18 02:30:21;;;;;;;;;;;17.00;99.90;;;;;;5052144;28;19921;-73
2022/07/18 02:32:47;;;;;;;;;;;16.90;99.90;;;;;;5051175;28;20318;-73
2022/07/18 02:35:12;;;;;;;;;;;16.90;99.90;;;;;;5063454;28;19927;-73
2022/07/18 02:37:40;;;;;;;;;;;16.90;99.90;;;;;;5065668;28;20353;-73
2022/07/18 02:40:07;;;;;;;;;;;16.90;99.90;;;;;;5051924;28;19928;-73
2022/07/18 02:42:33;;;;;;;;;;;16.90;99.90;;;;;;5051224;28;20446;-73
2022/07/18 02:44:58;;;;;;;;;;;16.90;99.90;;;;;;5051470;28;20003;-73
2022/07/18 02:47:24;;;;;;;;;;;16.80;99.90;;;;;;5051539;28;19944;-73
2022/07/18 02:49:49;;;;;;;;;;;16.80;99.90;;;;;;5051170;28;20299;-73
2022/07/18 02:52:15;;;;;;;;;;;16.80;99.90;;;;;;5051201;28;19928;-73
2022/07/18 02:54:41;;;;;;;;;;;16.80;99.90;;;;;;5051398;28;19920;-73
2022/07/18 02:57:06;;;;;;;;;;;16.80;99.90;;;;;;5051435;28;19932;-73
2022/07/18 02:59:32;;;;;;;;;;;16.80;99.90;;;;;;5051132;28;19931;-73
2022/07/18 03:01:57;;;;;;;;;;;16.80;99.90;;;;;;5051552;28;20309;-74
2022/07/18 03:04:23;;;;;;;;;;;16.70;99.90;;;;;;5052095;28;19921;-73
2022/07/18 03:06:49;;;;;;;;;;;16.70;99.90;;;;;;5050398;28;19920;-73
2022/07/18 03:09:15;;;;;;;;;;;16.70;99.90;;;;;;5050493;28;19924;-73
2022/07/18 03:11:41;;;;;;;;;;;16.70;99.90;;;;;;5051187;28;19927;-73
2022/07/18 03:14:06;;;;;;;;;;;16.70;99.90;;;;;;5050784;28;19924;-73
2022/07/18 03:16:32;;;;;;;;;;;16.70;99.90;;;;;;5051181;28;20016;-73
2022/07/18 03:18:58;;;;;;;;;;;16.60;99.90;;;;;;5051114;28;19964;-73
2022/07/18 03:21:23;;;;;;;;;;;16.60;99.90;;;;;;5050605;28;19921;-73
2022/07/18 03:23:49;;;;;;;;;;;16.60;99.90;;;;;;5049487;28;20024;-73
2022/07/18 03:26:14;;;;;;;;;;;16.60;99.90;;;;;;5050648;28;20019;-73
2022/07/18 03:28:40;;;;;;;;;;;16.60;99.90;;;;;;5050942;28;19964;-74
2022/07/18 03:31:06;;;;;;;;;;;16.60;99.90;;;;;;5050542;28;20007;-73
2022/07/18 03:33:31;;;;;;;;;;;16.60;99.90;;;;;;5050589;28;20003;-73
2022/07/18 03:35:57;;;;;;;;;;;16.60;99.90;;;;;;5050375;28;20653;-73
2022/07/18 03:38:22;;;;;;;;;;;16.60;99.90;;;;;;5050397;28;20671;-74
2022/07/18 03:40:48;;;;;;;;;;;16.70;99.90;;;;;;5037992;28;20306;-73
2022/07/18 03:43:14;;;;;;;;;;;16.70;99.90;;;;;;5050350;28;19943;-73
2022/07/18 03:45:39;;;;;;;;;;;16.70;99.90;;;;;;5050249;28;19921;-73
2022/07/18 03:48:05;;;;;;;;;;;16.70;99.90;;;;;;5051062;28;19929;-73
2022/07/18 03:50:30;;;;;;;;;;;16.70;99.90;;;;;;5051034;28;19925;-73
2022/07/18 03:52:56;;;;;;;;;;;16.70;99.90;;;;;;5048777;28;20462;-73
2022/07/18 03:55:21;;;;;;;;;;;16.70;99.90;;;;;;5049599;28;20011;-73
2022/07/18 03:57:47;;;;;;;;;;;16.70;99.90;;;;;;5050485;28;20395;-73
2022/07/18 04:00:13;;;;;;;;;;;16.70;99.90;;;;;;5050483;28;19921;-73
2022/07/18 04:02:42;;;;;;;;;;;16.70;99.90;;;;;;5050459;28;20007;-73
2022/07/18 04:05:09;;;;;;;;;;;16.70;99.90;;;;;;5049570;28;19921;-73
2022/07/18 04:07:35;;;;;;;;;;;16.70;99.90;;;;;;5049112;28;19947;-74
2022/07/18 04:10:00;;;;;;;;;;;16.70;99.90;;;;;;5049941;28;19928;-73
2022/07/18 04:12:26;;;;;;;;;;;16.70;99.90;;;;;;5060809;28;19920;-73
2022/07/18 04:14:51;;;;;;;;;;;16.80;99.90;;;;;;5068460;28;20379;-73
2022/07/18 04:17:17;;;;;;;;;;;16.70;99.90;;;;;;5069390;28;19924;-73
2022/07/18 04:19:42;;;;;;;;;;;16.80;99.90;;;;;;5055657;28;20358;-73
2022/07/18 04:22:08;;;;;;;;;;;16.80;99.90;;;;;;5068992;28;19970;-73
2022/07/18 04:24:33;;;;;;;;;;;16.80;99.90;;;;;;5063445;28;19924;-73
2022/07/18 04:26:59;;;;;;;;;;;16.80;99.90;;;;;;5059136;28;19928;-73
2022/07/18 04:29:24;;;;;;;;;;;16.90;99.90;;;;;;5064165;28;19928;-73
2022/07/18 04:31:50;;;;;;;;;;;16.90;99.90;;;;;;5058788;28;19921;-73
2022/07/18 04:34:15;;;;;;;;;;;17.00;99.90;;;;;;5052214;28;19920;-73
2022/07/18 04:36:41;;;;;;;;;;;17.00;99.90;;;;;;5057589;28;19969;-73
2022/07/18 04:39:07;;;;;;;;;;;17.10;99.90;;;;;;5051197;28;20599;-73
2022/07/18 04:41:32;;;;;;;;;;;17.10;99.90;;;;;;5058833;28;19975;-73
2022/07/18 04:43:58;;;;;;;;;;;17.10;99.90;;;;;;5050757;28;20031;-73
2022/07/18 04:46:23;;;;;;;;;;;17.20;99.90;;;;;;5049747;28;20788;-73
2022/07/18 04:48:49;;;;;;;;;;;17.10;99.90;;;;;;5063616;28;19920;-73
2022/07/18 04:51:14;;;;;;;;;;;17.20;99.90;;;;;;5068469;28;19925;-73
2022/07/18 04:53:40;;;;;;;;;;;17.20;99.90;;;;;;5052025;28;20382;-74
2022/07/18 04:56:05;;;;;;;;;;;17.20;99.90;;;;;;5049356;28;19927;-73
2022/07/18 04:58:31;;;;;;;;;;;17.30;99.90;;;;;;5048618;28;19924;-74
2022/07/18 05:00:56;;;;;;;;;;;17.30;99.90;;;;;;5058877;28;20007;-73
2022/07/18 05:03:22;;;;;;;;;;;17.30;99.90;;;;;;5066616;28;19934;-74
2022/07/18 05:05:47;;;;;;;;;;;17.40;99.90;;;;;;5067095;28;20078;-74
2022/07/18 05:08:13;;;;;;;;;;;17.40;99.90;;;;;;5051940;28;20280;-74
2022/07/18 05:10:39;;;;;;;;;;;17.40;99.90;;;;;;5049586;28;20390;-73
2022/07/18 05:13:05;;;;;;;;;;;17.40;99.90;;;;;;5048921;28;19929;-74
2022/07/18 05:15:30;;;;;;;;;;;17.40;99.90;;;;;;5049278;28;19924;-73
2022/07/18 05:17:56;;;;;;;;;;;17.50;99.90;;;;;;5051686;28;19928;-74
2022/07/18 05:20:23;;;;;;;;;;;17.50;99.90;;;;;;5052091;28;20003;-74
2022/07/18 05:22:51;;;;;;;;;;;17.50;99.90;;;;;;5052915;28;19957;-74
2022/07/18 05:25:17;;;;;;;;;;;17.60;99.90;;;;;;5052127;28;19928;-73
2022/07/18 05:27:43;;;;;;;;;;;17.60;99.90;;;;;;5052805;28;19920;-73
2022/07/18 05:30:10;;;;;;;;;;;17.60;99.90;;;;;;5053399;28;20430;-73
2022/07/18 05:32:36;;;;;;;;;;;17.60;99.90;;;;;;5053382;28;20012;-73
2022/07/18 05:35:01;;;;;;;;;;;17.70;99.90;;;;;;5052287;28;20015;-74
2022/07/18 05:37:27;;;;;;;;;;;17.70;99.90;;;;;;5052753;28;20409;-74
2022/07/18 05:39:52;;;;;;;;;;;17.80;99.90;;;;;;5062124;28;19920;-73
2022/07/18 05:42:18;;;;;;;;;;;17.80;99.90;;;;;;5069315;28;19936;-73
2022/07/18 05:44:44;;;;;;;;;;;17.90;99.90;;;;;;5061868;28;19924;-72
2022/07/18 05:47:09;;;;;;;;;;;17.90;99.90;;;;;;5069628;28;19936;-72
2022/07/18 05:49:35;;;;;;;;;;;18.00;99.90;;;;;;5050135;28;19932;-72
2022/07/18 05:52:01;;;;;;;;;;;18.10;99.90;;;;;;5052245;28;20381;-73
2022/07/18 05:54:26;;;;;;;;;;;18.20;99.90;;;;;;5063237;28;20007;-73
2022/07/18 05:56:52;;;;;;;;;;;18.20;99.90;;;;;;5052023;28;19924;-73
2022/07/18 05:59:18;;;;;;;;;;;18.30;99.90;;;;;;5051594;28;20004;-73
2022/07/18 06:01:44;;;;;;;;;;;18.40;99.90;;;;;;5053169;28;19920;-72
2022/07/18 06:04:10;;;;;;;;;;;18.40;99.90;;;;;;5051947;28;19975;-73
2022/07/18 06:06:35;;;;;;;;;;;18.40;99.90;;;;;;5051127;28;19932;-73
2022/07/18 06:09:01;;;;;;;;;;;18.40;99.90;;;;;;5052249;28;19921;-73
2022/07/18 06:11:27;;;;;;;;;;;18.50;99.90;;;;;;5051827;28;19920;-73
2022/07/18 06:13:52;;;;;;;;;;;18.60;99.90;;;;;;5051944;28;20329;-73
2022/07/18 06:16:18;;;;;;;;;;;18.60;99.90;;;;;;5067423;28;20614;-73
2022/07/18 06:18:43;;;;;;;;;;;18.60;99.90;;;;;;5071242;28;19965;-73
2022/07/18 06:21:09;;;;;;;;;;;18.80;99.90;;;;;;5057715;28;20080;-73
2022/07/18 06:23:35;;;;;;;;;;;18.80;99.90;;;;;;5071442;28;20371;-73
2022/07/18 06:26:01;;;;;;;;;;;18.80;99.90;;;;;;5070566;28;19933;-73
2022/07/18 06:28:28;;;;;;;;;;;18.90;99.90;;;;;;5061991;28;19928;-73
2022/07/18 06:30:54;;;;;;;;;;;19.00;99.90;;;;;;5051687;28;19928;-73
2022/07/18 06:33:19;;;;;;;;;;;19.00;99.90;;;;;;5051629;28;20379;-72
2022/07/18 06:35:46;;;;;;;;;;;19.10;99.90;;;;;;5067071;28;19955;-73
2022/07/18 06:38:12;;;;;;;;;;;19.20;99.90;;;;;;5061788;28;20314;-73
2022/07/18 06:40:37;;;;;;;;;;;19.30;99.90;;;;;;5067733;28;19928;-73
2022/07/18 06:43:03;;;;;;;;;;;19.30;99.90;;;;;;5061979;28;19979;-73
2022/07/18 06:45:28;;;;;;;;;;;19.40;99.90;;;;;;5064765;28;19928;-73
2022/07/18 06:47:54;;;;;;;;;;;19.50;99.90;;;;;;5051841;28;19921;-73
2022/07/18 06:50:19;;;;;;;;;;;19.60;99.90;;;;;;5051687;28;19929;-73
2022/07/18 06:52:45;;;;;;;;;;;19.60;99.90;;;;;;5051583;28;19921;-73
2022/07/18 06:55:11;;;;;;;;;;;19.60;99.90;;;;;;5051440;28;19998;-73
2022/07/18 06:57:37;;;;;;;;;;;19.70;99.90;;;;;;5060960;28;19974;-73
2022/07/18 07:00:03;;;;;;;;;;;19.70;99.90;;;;;;5054788;28;19937;-73
2022/07/18 07:02:29;;;;;;;;;;;19.80;99.90;;;;;;5051460;28;19964;-73
2022/07/18 07:04:54;;;;;;;;;;;19.80;99.90;;;;;;5051180;28;19983;-73
2022/07/18 07:07:20;;;;;;;;;;;19.90;99.90;;;;;;5051825;28;20008;-73
2022/07/18 07:09:45;;;;;;;;;;;20.00;99.90;;;;;;5049785;28;20583;-73
2022/07/18 07:12:11;;;;;;;;;;;20.00;99.90;;;;;;5059424;28;19920;-73
2022/07/18 07:14:37;;;;;;;;;;;20.10;99.90;;;;;;5057208;28;19963;-73
2022/07/18 07:17:03;;;;;;;;;;;20.10;99.90;;;;;;5070312;28;19920;-73
2022/07/18 07:19:29;;;;;;;;;;;20.20;99.90;;;;;;5055338;28;19964;-73
2022/07/18 07:21:54;;;;;;;;;;;20.30;99.90;;;;;;5050659;28;19967;-73
2022/07/18 07:24:20;;;;;;;;;;;20.40;99.90;;;;;;5052495;28;19967;-73
2022/07/18 07:26:45;;;;;;;;;;;20.50;99.90;;;;;;5061835;28;20636;-73
2022/07/18 07:29:11;;;;;;;;;;;20.60;99.90;;;;;;5063005;28;19963;-73
2022/07/18 07:31:36;;;;;;;;;;;20.70;99.20;;;;;;5050575;28;19928;-73
2022/07/18 07:34:02;;;;;;;;;;;20.90;98.80;;;;;;5051611;28;20019;-73
2022/07/18 07:36:27;;;;;;;;;;;21.10;98.90;;;;;;5069806;28;19947;-73
2022/07/18 07:38:53;;;;;;;;;;;21.20;98.60;;;;;;5056487;28;20031;-73
2022/07/18 07:41:18;;;;;;;;;;;21.40;98.30;;;;;;5069440;28;20436;-73
2022/07/18 07:43:44;;;;;;;;;;;21.50;97.30;;;;;;5067587;28;19966;-73
2022/07/18 07:46:11;;;;;;;;;;;21.70;97.50;;;;;;5057798;28;19924;-73
2022/07/18 07:48:37;;;;;;;;;;;21.90;96.80;;;;;;5055951;28;19921;-73
2022/07/18 07:51:03;;;;;;;;;;;22.00;96.90;;;;;;5061486;28;19921;-72
2022/07/18 07:53:29;;;;;;;;;;;22.10;96.10;;;;;;5051946;28;20291;-73
2022/07/18 07:55:54;;;;;;;;;;;22.30;94.90;;;;;;5069491;28;19921;-73
2022/07/18 07:58:20;;;;;;;;;;;22.40;94.50;;;;;;5054873;28;19920;-73
2022/07/18 08:00:45;;;;;;;;;;;22.40;94.70;;;;;;5058085;28;19920;-73
2022/07/18 08:03:11;;;;;;;;;;;22.50;94.90;;;;;;5055143;28;19920;-73
2022/07/18 08:05:38;;;;;;;;;;;22.50;94.20;;;;;;5050365;28;20382;-73
2022/07/18 08:08:04;;;;;;;;;;;22.70;94.00;;;;;;5050756;28;20046;-73
2022/07/18 08:10:30;;;;;;;;;;;22.80;93.80;;;;;;5061971;28;20012;-72
2022/07/18 08:12:55;;;;;;;;;;;23.00;94.10;;;;;;5063064;28;19928;-73
2022/07/18 08:15:21;;;;;;;;;;;23.30;93.50;;;;;;5050067;28;19921;-73
2022/07/18 08:17:46;;;;;;;;;;;23.40;92.50;;;;;;5049713;28;20270;-73
2022/07/18 08:20:12;;;;;;;;;;;23.50;91.70;;;;;;5057900;28;19932;-72
2022/07/18 08:22:53;;;;;;;;;;;23.50;92.00;;;;;;5068104;28;20042;-73
2022/07/18 08:25:19;;;;;;;;;;;23.40;91.90;;;;;;5049953;28;19921;-73
2022/07/18 08:27:45;;;;;;;;;;;23.50;91.80;;;;;;5049871;28;19964;-72
2022/07/18 08:30:10;;;;;;;;;;;23.50;91.40;;;;;;5048649;28;19964;-72
2022/07/18 08:32:36;;;;;;;;;;;23.60;91.40;;;;;;5049818;28;19925;-72
2022/07/18 08:35:01;;;;;;;;;;;23.80;91.80;;;;;;5049528;28;19921;-73
2022/07/18 08:37:27;;;;;;;;;;;23.90;91.60;;;;;;5051547;28;19932;-73
2022/07/18 08:39:52;;;;;;;;;;;24.10;91.40;;;;;;5049256;28;19933;-73
2022/07/18 08:42:22;;;;;;;;;;;24.20;91.00;;;;;;5050406;28;20294;-73
2022/07/18 08:44:47;;;;;;;;;;;24.30;90.40;;;;;;5049879;28;19932;-73
2022/07/18 08:47:15;;;;;;;;;;;24.40;89.90;;;;;;5049895;28;19920;-73
2022/07/18 08:49:41;;;;;;;;;;;24.50;88.80;;;;;;5049487;28;19932;-73
2022/07/18 08:52:06;;;;;;;;;;;24.50;87.50;;;;;;5053143;28;19921;-72
2022/07/18 08:54:32;;;;;;;;;;;24.60;87.50;;;;;;5053723;28;20436;-73
2022/07/18 08:56:57;;;;;;;;;;;24.60;86.90;;;;;;5053845;28;19943;-73
2022/07/18 08:59:23;;;;;;;;;;;24.70;88.40;;;;;;5053450;28;19921;-73
2022/07/18 09:01:48;;;;;;;;;;;24.70;86.20;;;;;;5053599;28;19921;-73
2022/07/18 09:04:31;;;;;;;;;;;24.80;87.60;;;;;;5054316;28;19927;-73
2022/07/18 09:06:58;;;;;;;;;;;24.80;85.50;;;;;;5053228;28;19947;-72
2022/07/18 09:09:23;;;;;;;;;;;24.90;84.80;;;;;;5065593;28;19931;-73
2022/07/18 09:11:50;;;;;;;;;;;24.90;85.00;;;;;;5072431;28;20011;-73
2022/07/18 09:14:29;;;;;;;;;;;24.90;84.80;;;;;;5060769;28;20007;-72
2022/07/18 09:17:11;;;;;;;;;;;24.90;84.40;;;;;;5040917;28;19920;-73
2022/07/18 09:19:38;;;;;;;;;;;25.00;83.70;;;;;;5067373;28;19924;-73
2022/07/18 09:22:12;;;;;;;;;;;25.00;83.80;;;;;;5072162;28;19927;-72
2022/07/18 09:24:50;;;;;;;;;;;25.10;83.40;;;;;;5059077;28;19999;-73
2022/07/18 09:27:45;;;;;;;;;;;25.10;83.20;;;;;;5058854;28;20054;-73
2022/07/18 09:30:22;;;;;;;;;;;25.20;84.60;;;;;;5047151;28;19920;-73
2022/07/18 09:32:52;;;;;;;;;;;25.20;83.00;;;;;;5067383;28;19924;-73
2022/07/18 09:35:19;;;;;;;;;;;25.30;81.10;;;;;;5052718;28;19928;-73
2022/07/18 09:38:00;;;;;;;;;;;25.40;84.50;;;;;;5057185;28;20434;-73
2022/07/18 09:40:27;;;;;;;;;;;25.60;84.10;;;;;;5072262;28;19927;-73
2022/07/18 09:42:55;;;;;;;1.55;0.50;;;25.90;83.90;;;;;;5063897;28;19979;-73
2022/07/18 09:45:23;;;;;;;2.65;0.60;;;26.20;82.10;;;;;;5052038;28;20079;-72
2022/07/18 09:47:55;;;;;;;2.42;0.73;;;26.50;82.60;;;;;;5050792;28;20411;-73
2022/07/18 09:50:34;;;;;;;3.78;0.80;;;26.70;82.50;;;;;;5052958;28;20045;-73
2022/07/18 09:53:14;;;;;;;2.45;0.77;;;26.90;81.20;;;;;;5052011;28;20048;-72
2022/07/18 09:55:52;;;;;;;2.20;0.50;;;27.20;79.10;;;;;;5052356;28;20446;-73
2022/07/18 09:58:25;;;;;;;3.47;0.70;;;27.40;79.60;;;;;;5052672;28;20048;-73
2022/07/18 10:00:52;;;;;;;3.70;0.73;;;27.70;79.40;;;;;;5052744;28;20048;-75
2022/07/18 10:03:19;;;;;;;1.52;0.50;;;27.90;79.20;;;;;;5033962;28;20464;-72
2022/07/18 10:05:46;;;;;;;5.25;0.88;;;28.10;78.00;;;;;;5051773;28;20037;-72
2022/07/18 10:08:16;;;;;;;2.83;0.60;;;28.20;75.20;;;;;;5051150;28;20041;-73
2022/07/18 10:10:44;;;;;;;4.07;0.60;;;28.20;74.20;;;;;;5051704;28;20041;-72
2022/07/18 10:13:11;;;;;;;2.58;0.60;;;28.30;71.80;;;;;;5050458;28;20413;-72
2022/07/18 10:15:40;;;;;;;3.13;0.60;;;28.20;68.80;;;;;;5051407;28;20053;-73
2022/07/18 10:18:09;;;;;;;3.55;0.80;;;28.30;69.80;;;;;;5051259;28;20094;-71
2022/07/18 10:20:39;;;;;;;5.68;0.90;;;28.30;69.00;;;;;;5051769;28;20037;-72
2022/07/18 10:23:21;;;;;;;4.03;0.80;;;28.50;69.70;;;;;;5051545;28;20091;-72
2022/07/18 10:26:17;;;;;;;5.97;1.02;;;28.70;67.70;;;;;;5051245;28;20045;-72
2022/07/18 10:28:55;;;;;;;3.30;1.00;;;28.90;67.40;;;;;;5051621;28;20045;-72
2022/07/18 10:31:22;;;;;;;3.25;0.75;;;29.00;67.30;;;;;;5051574;28;20123;-72
2022/07/18 10:33:48;;;;;;;2.42;0.70;;;29.00;66.00;;;;;;5051785;28;20118;-72
2022/07/18 10:36:15;;;;;;;7.32;0.77;;;29.10;66.20;;;;;;5051517;28;20053;-72
2022/07/18 10:39:14;;;;;;;3.47;0.82;;;29.20;64.70;;;;;;5051364;28;20564;-72
2022/07/18 10:41:43;;;;;;;2.58;0.80;;;29.40;64.80;;;;;;5047960;28;20060;-72
2022/07/18 10:44:27;;;;;;;2.47;0.70;;;29.40;63.60;;;;;;5050890;28;20045;-72
2022/07/18 10:47:05;;;;;;;4.80;0.90;;;29.60;62.00;;;;;;5051516;28;20514;-73
2022/07/18 10:49:49;;;;;;;2.78;0.85;;;29.80;62.90;;;;;;5051312;28;20413;-72
2022/07/18 10:52:33;;;;;;;3.50;0.80;;;30.00;63.20;;;;;;5051920;28;20041;-72
2022/07/18 10:55:04;;;;;;;3.00;1.17;;;30.30;62.00;;;;;;5051157;28;20088;-72
2022/07/18 10:57:41;;;;;;;4.15;0.98;;;30.50;61.80;;;;;;5051344;28;20045;-72
2022/07/18 11:00:25;;;;;;;2.70;0.73;;;30.50;61.00;;;;;;5051545;28;20072;-72
2022/07/18 11:03:00;;;;;;;3.30;0.82;;;30.60;62.20;;;;;;5050802;28;20037;-71
2022/07/18 11:05:25;;;;;;;4.00;1.00;;;30.70;59.90;;;;;;5051340;28;20130;-72
2022/07/18 11:08:03;;;;;;;4.40;1.10;;;30.80;58.40;;;;;;5050695;28;20127;-72
2022/07/18 11:10:41;;;;;;;4.90;1.10;;;30.90;57.10;;;;;;5049230;28;20132;-73
2022/07/18 11:13:25;;;;;;;3.95;0.93;;;30.90;59.20;;;;;;5050331;28;20105;-72
2022/07/18 11:15:59;;;;;;;4.03;1.25;;;31.20;57.00;;;;;;5049415;28;20052;-72
2022/07/18 11:18:25;;;;;;;2.67;1.10;;;31.20;56.20;;;;;;5050269;28;20548;-72
2022/07/18 11:20:51;;;;;;;2.42;0.85;;;31.40;56.40;;;;;;5050157;28;20041;-72
2022/07/18 11:23:23;;;;;;;3.80;1.00;;;31.60;57.10;;;;;;5050162;28;20048;-72
2022/07/18 11:25:56;;;;;;;3.63;0.95;;;31.80;55.60;;;;;;5050524;28;20045;-72
2022/07/18 11:28:23;;;;;;;6.22;1.20;;;31.90;57.10;;;;;;5050586;28;20091;-72
2022/07/18 11:31:18;;;;;;;3.42;1.15;;;32.00;54.30;;;;;;5061717;28;20075;-72
2022/07/18 11:33:46;;;;;;;4.47;1.40;;;32.10;54.30;;;;;;5045088;28;20052;-73
2022/07/18 11:36:15;;;;;;;4.40;1.60;;;32.20;51.80;;;;;;5050079;28;20159;-72
2022/07/18 11:38:47;;;;;;;3.90;1.20;;;32.30;53.10;;;;;;5050568;28;20472;-72
2022/07/18 11:41:14;;;;;;;5.10;1.48;;;32.40;53.00;;;;;;5037795;28;20067;-72
2022/07/18 11:43:40;;;;;;;5.63;1.45;;;32.50;54.10;;;;;;5049728;28;20042;-72
2022/07/18 11:46:08;;;;;;;4.50;1.35;;;32.70;53.20;;;;;;5049453;28;20466;-72
2022/07/18 11:48:35;;;;;;;3.83;1.40;;;32.80;52.20;;;;;;5049521;28;20051;-73
2022/07/18 11:51:00;;;;;;;2.38;1.20;;;32.90;51.10;;;;;;5050382;28;20415;-72
2022/07/18 11:53:27;;;;;;;2.28;1.20;;;33.00;50.20;;;;;;5050234;28;20094;-72
2022/07/18 11:55:54;;;;;;;4.32;1.50;;;33.00;49.40;;;;;;5049904;28;20102;-73
2022/07/18 11:58:20;;;;;;;3.00;1.15;;;32.90;50.30;;;;;;5049814;28;20049;-73
2022/07/18 12:00:46;;;;;;;4.40;1.20;;;33.00;51.00;;;;;;5049750;28;20095;-72
2022/07/18 12:03:23;;;;;;;2.58;1.23;;;33.00;50.90;;;;;;5049577;28;20041;-72
2022/07/18 12:05:50;;;;;;;7.13;1.40;;;32.90;50.00;;;;;;5048935;28;20087;-72
2022/07/18 12:08:37;;;;;;;4.35;1.45;;;32.80;50.30;;;;;;5048939;28;20052;-72
2022/07/18 12:11:17;;;;;;;6.05;1.48;;;32.60;48.70;;;;;;5049218;28;20072;-72
2022/07/18 12:13:56;;;;;;;4.03;1.50;;;32.60;48.60;;;;;;5049573;28;20041;-72
2022/07/18 12:16:32;;;;;;;2.38;1.30;;;32.70;48.60;;;;;;5048920;28;20048;-72
2022/07/18 12:19:05;;;;;;;2.78;1.50;;;32.80;49.80;;;;;;5049280;28;20041;-72
2022/07/18 12:21:45;;;;;;;4.03;1.30;;;33.00;47.70;;;;;;5049812;28;20037;-73
2022/07/18 12:24:41;;;;;;;3.35;1.80;;;33.10;48.30;;;;;;5049396;28;20037;-72
2022/07/18 12:27:16;;;;;;;4.18;1.70;;;33.40;48.70;;;;;;5026192;28;20064;-73
2022/07/18 12:30:08;;;;;;;3.90;1.83;;;33.60;47.50;;;;;;5062399;28;20041;-73
2022/07/18 12:32:53;;;;;;;4.18;2.08;;;33.60;46.60;;;;;;5049051;28;20045;-72
2022/07/18 12:35:31;;;;;;;5.47;2.40;;;33.80;47.00;;;;;;5048937;28;20053;-73
2022/07/18 12:37:59;;;;;;;7.10;2.30;;;34.00;46.70;;;;;;5044203;28;20472;-72
2022/07/18 12:40:38;;;;;;;3.83;1.80;;;34.10;47.00;;;;;;5054139;28;20410;-72
2022/07/18 12:43:08;;;;;;;4.63;2.25;;;34.20;45.10;;;;;;5059269;28;20107;-72
2022/07/18 12:45:35;;;;;;;4.50;2.20;;;34.30;44.50;;;;;;5051605;28;20080;-72
2022/07/18 12:48:01;;;;;;;3.97;2.08;;;34.30;44.50;;;;;;5058674;28;20053;-72
2022/07/18 12:50:27;;;;;;;5.47;2.25;;;34.50;44.30;;;;;;5062041;28;20464;-72
2022/07/18 12:52:52;;;;;;;4.53;1.83;;;34.60;45.40;;;;;;5057731;28;20045;-73
2022/07/18 12:55:19;;;;;;;5.40;1.83;;;34.80;45.80;;;;;;5068050;28;20082;-72
2022/07/18 12:57:45;;;;;;;4.43;1.90;;;34.80;44.80;;;;;;5058688;28;20071;-72
2022/07/18 13:00:12;;;;;;;4.93;2.00;;;34.70;44.30;;;;;;5061320;28;20041;-72
2022/07/18 13:02:37;;;;;;;5.20;1.80;;;34.80;45.60;;;;;;5059074;28;20384;-72
2022/07/18 13:05:03;;;;;;;5.28;1.98;;;34.90;43.80;;;;;;5054314;28;20048;-72
2022/07/18 13:07:29;;;;;;;4.55;1.60;;;35.00;44.50;;;;;;5058203;28;20087;-73
2022/07/18 13:09:54;;;;;;;4.32;1.52;;;35.10;44.90;;;;;;5048887;28;20036;-73
2022/07/18 13:12:21;;;;;;;3.72;1.80;;;35.20;44.80;;;;;;5048811;28;20041;-73
2022/07/18 13:14:46;;;;;;;4.07;1.40;;;35.30;43.20;;;;;;5048436;28;20048;-72
2022/07/18 13:17:12;;;;;;;4.95;1.55;;;35.50;44.00;;;;;;5049238;28;20466;-72
2022/07/18 13:19:38;;;;;;;4.63;1.83;;;35.60;44.00;;;;;;5048619;28;20053;-73
2022/07/18 13:22:04;;;;;;;3.42;1.88;;;35.80;44.20;;;;;;5049065;28;20127;-72
2022/07/18 13:24:30;;;;;;;4.35;1.75;;;35.90;44.00;;;;;;5048528;28;20132;-73
2022/07/18 13:26:55;;;;;;;3.78;1.58;;;36.00;43.20;;;;;;5048592;28;20076;-72
2022/07/18 13:29:21;;;;;;;4.47;1.52;;;36.20;43.50;;;;;;5048868;28;20129;-72
2022/07/18 13:31:48;;;;;;;3.55;1.55;;;36.40;43.60;;;;;;5048651;28;20040;-72
2022/07/18 13:34:13;;;;;;;7.05;1.73;;;36.80;43.40;;;;;;5047422;28;20067;-72
2022/07/18 13:36:39;;;;;;;5.05;1.98;;;37.10;42.90;;;;;;5048536;28;20419;-73
2022/07/18 13:39:05;;;;;;;5.82;1.98;;;37.10;42.70;;;;;;5051471;28;20119;-73
2022/07/18 13:41:30;;;;;;;3.83;1.50;;;37.00;42.30;;;;;;5052236;28;20115;-73
2022/07/18 13:43:56;;;;;;;8.13;1.58;;;37.00;42.30;;;;;;5054694;28;20106;-73
2022/07/18 13:46:22;;;;;;;5.95;2.13;;;37.00;42.20;;;;;;5071891;28;20051;-72
2022/07/18 13:48:49;;;;;;;3.58;1.92;;;36.90;42.40;;;;;;5071098;28;20040;-73
2022/07/18 13:51:15;;;;;;;6.30;1.90;;;37.00;42.30;;;;;;5071632;28;20755;-72
2022/07/18 13:53:41;;;;;;;3.70;1.70;;;37.10;41.60;;;;;;5071067;28;20033;-73